createdAt,value
2023-04-16T00:00:40.090Z,23.22
2023-04-16T00:01:40.141Z,23.22
2023-04-16T00:02:40.398Z,23.24
2023-04-16T00:03:40.609Z,23.25
2023-04-16T00:04:40.307Z,23.28
2023-04-16T00:05:40.293Z,23.24
2023-04-16T00:06:40.340Z,23.25
2023-04-16T00:07:40.369Z,23.25
2023-04-16T00:08:40.430Z,23.27
2023-04-16T00:09:40.445Z,23.25
2023-04-16T00:10:40.520Z,23.24
2023-04-16T00:11:40.487Z,23.24
2023-04-16T00:12:40.525Z,23.25
2023-04-16T00:13:40.581Z,23.25
2023-04-16T00:14:40.616Z,23.27
2023-04-16T00:15:40.636Z,23.27
2023-04-16T00:16:40.688Z,23.25
2023-04-16T00:17:40.745Z,23.21
2023-04-16T00:18:40.793Z,23.24
2023-04-16T00:19:40.826Z,23.24
2023-04-16T00:20:40.890Z,23.22
2023-04-16T00:21:41.427Z,23.24
2023-04-16T00:22:41.019Z,23.24
2023-04-16T00:23:40.977Z,23.27
2023-04-16T00:24:41.030Z,23.24
2023-04-16T00:25:41.110Z,23.21
2023-04-16T00:26:41.145Z,23.24
2023-04-16T00:27:41.192Z,23.22
2023-04-16T00:28:41.234Z,23.21
2023-04-16T00:29:41.297Z,23.22
2023-04-16T00:30:41.379Z,23.24
2023-04-16T00:31:41.441Z,23.22
2023-04-16T00:32:41.502Z,23.22
2023-04-16T00:33:41.481Z,23.20
2023-04-16T00:34:41.496Z,23.24
2023-04-16T00:35:41.522Z,23.21
2023-04-16T00:36:41.535Z,23.24
2023-04-16T00:37:41.598Z,23.24
2023-04-16T00:38:41.636Z,23.21
2023-04-16T00:39:41.690Z,23.20
2023-04-16T00:40:41.766Z,23.20
2023-04-16T00:41:41.777Z,23.21
2023-04-16T00:42:41.800Z,23.21
2023-04-16T00:43:41.872Z,23.20
2023-04-16T00:44:41.945Z,23.22
2023-04-16T00:45:41.953Z,23.21
2023-04-16T00:46:42.084Z,23.22
2023-04-16T00:47:42.089Z,23.21
2023-04-16T00:48:42.080Z,23.22
2023-04-16T00:49:42.097Z,23.24
2023-04-16T00:50:42.128Z,23.21
2023-04-16T00:51:42.164Z,23.22
2023-04-16T00:52:42.199Z,23.22
2023-04-16T00:53:42.305Z,23.21
2023-04-16T00:54:42.328Z,23.22
2023-04-16T00:55:42.341Z,23.21
2023-04-16T00:56:42.420Z,23.20
2023-04-16T00:57:42.446Z,23.22
2023-04-16T00:58:42.503Z,23.20
2023-04-16T00:59:42.528Z,23.24
2023-04-16T01:00:42.560Z,23.22
2023-04-16T01:01:42.680Z,23.21
2023-04-16T01:02:42.706Z,23.20
2023-04-16T01:03:43.022Z,23.22
2023-04-16T01:04:42.690Z,23.22
2023-04-16T01:05:42.740Z,23.22
2023-04-16T01:06:42.709Z,23.22
2023-04-16T01:07:42.744Z,23.21
2023-04-16T01:08:42.819Z,23.22
2023-04-16T01:09:42.838Z,23.21
2023-04-16T01:10:42.899Z,23.21
2023-04-16T01:11:42.947Z,23.22
2023-04-16T01:12:42.985Z,23.21
2023-04-16T01:13:43.058Z,23.20
2023-04-16T01:14:43.058Z,23.17
2023-04-16T01:15:43.102Z,23.17
2023-04-16T01:16:43.110Z,23.17
2023-04-16T01:17:43.264Z,23.18
2023-04-16T01:18:43.219Z,23.18
2023-04-16T01:19:43.262Z,23.21
2023-04-16T01:20:43.289Z,23.20
2023-04-16T01:21:43.341Z,23.18
2023-04-16T01:22:43.358Z,23.18
2023-04-16T01:23:43.394Z,23.20
2023-04-16T01:24:43.399Z,23.21
2023-04-16T01:25:43.454Z,23.17
2023-04-16T01:26:43.491Z,23.20
2023-04-16T01:27:43.579Z,23.18
2023-04-16T01:28:43.583Z,23.20
2023-04-16T01:29:43.602Z,23.17
2023-04-16T01:30:43.651Z,23.17
2023-04-16T01:31:43.731Z,23.18
2023-04-16T01:32:43.789Z,23.18
2023-04-16T01:33:43.791Z,23.18
2023-04-16T01:34:43.807Z,23.20
2023-04-16T01:35:43.846Z,23.20
2023-04-16T01:36:43.881Z,23.18
2023-04-16T01:37:43.903Z,23.18
2023-04-16T01:38:43.929Z,23.18
2023-04-16T01:39:43.965Z,23.18
2023-04-16T01:40:43.985Z,23.18
2023-04-16T01:41:43.992Z,23.17
2023-04-16T01:42:44.036Z,23.17
2023-04-16T01:43:44.065Z,23.18
2023-04-16T01:44:44.086Z,23.17
2023-04-16T01:45:44.100Z,23.18
2023-04-16T01:46:44.207Z,23.18
2023-04-16T01:47:44.144Z,23.18
2023-04-16T01:48:44.174Z,23.17
2023-04-16T01:49:44.180Z,23.15
2023-04-16T01:50:44.174Z,23.17
2023-04-16T01:51:44.173Z,23.17
2023-04-16T01:52:44.181Z,23.14
2023-04-16T01:53:44.191Z,23.17
2023-04-16T01:54:44.241Z,23.17
2023-04-16T01:55:44.283Z,23.20
2023-04-16T01:56:44.261Z,23.17
2023-04-16T01:57:44.289Z,23.18
2023-04-16T01:58:44.413Z,23.17
2023-04-16T01:59:44.374Z,23.17
2023-04-16T02:00:44.465Z,23.17
2023-04-16T02:01:44.453Z,23.15
2023-04-16T02:02:44.611Z,23.15
2023-04-16T02:03:44.615Z,23.15
2023-04-16T02:04:44.451Z,23.17
2023-04-16T02:05:44.475Z,23.17
2023-04-16T02:06:44.493Z,23.15
2023-04-16T02:07:44.476Z,23.15
2023-04-16T02:08:44.908Z,23.14
2023-04-16T02:09:44.503Z,23.14
2023-04-16T02:10:44.517Z,23.14
2023-04-16T02:11:44.511Z,23.15
2023-04-16T02:12:44.511Z,23.17
2023-04-16T02:13:44.540Z,23.17
2023-04-16T02:14:44.513Z,23.15
2023-04-16T02:15:44.564Z,23.14
2023-04-16T02:16:44.574Z,23.14
2023-04-16T02:17:44.611Z,23.15
2023-04-16T02:18:44.562Z,23.15
2023-04-16T02:19:44.576Z,23.15
2023-04-16T02:20:44.618Z,23.17
2023-04-16T02:21:44.611Z,23.15
2023-04-16T02:22:44.629Z,23.13
2023-04-16T02:23:44.642Z,23.17
2023-04-16T02:24:44.672Z,23.14
2023-04-16T02:25:44.714Z,23.14
2023-04-16T02:26:44.693Z,23.15
2023-04-16T02:27:44.661Z,23.14
2023-04-16T02:28:44.681Z,23.15
2023-04-16T02:29:44.663Z,23.15
2023-04-16T02:30:44.682Z,23.15
2023-04-16T02:31:44.776Z,23.14
2023-04-16T02:32:44.742Z,23.13
2023-04-16T02:33:44.676Z,23.15
2023-04-16T02:34:44.699Z,23.13
2023-04-16T02:35:44.703Z,23.17
2023-04-16T02:36:44.741Z,23.14
2023-04-16T02:37:44.778Z,23.13
2023-04-16T02:38:44.767Z,23.13
2023-04-16T02:39:44.774Z,23.17
2023-04-16T02:40:44.787Z,23.15
2023-04-16T02:41:44.768Z,23.13
2023-04-16T02:42:44.781Z,23.15
2023-04-16T02:43:44.818Z,23.14
2023-04-16T02:44:44.796Z,23.13
2023-04-16T02:45:44.880Z,23.13
2023-04-16T02:46:44.830Z,23.14
2023-04-16T02:47:44.969Z,23.14
2023-04-16T02:48:44.844Z,23.15
2023-04-16T02:49:44.820Z,23.15
2023-04-16T02:50:44.832Z,23.15
2023-04-16T02:51:44.836Z,23.13
2023-04-16T02:52:44.864Z,23.14
2023-04-16T02:53:44.852Z,23.14
2023-04-16T02:54:44.868Z,23.15
2023-04-16T02:55:44.892Z,23.15
2023-04-16T02:56:44.860Z,23.14
2023-04-16T02:57:44.909Z,23.13
2023-04-16T02:58:44.913Z,23.11
2023-04-16T02:59:44.914Z,23.13
2023-04-16T03:00:44.887Z,23.13
2023-04-16T03:01:44.992Z,23.13
2023-04-16T03:02:44.956Z,23.13
2023-04-16T03:03:44.962Z,23.14
2023-04-16T03:04:44.936Z,23.13
2023-04-16T03:05:44.910Z,23.14
2023-04-16T03:06:44.923Z,23.11
2023-04-16T03:07:44.909Z,23.13
2023-04-16T03:08:44.949Z,23.13
2023-04-16T03:09:44.927Z,23.14
2023-04-16T03:10:44.946Z,23.15
2023-04-16T03:11:44.927Z,23.13
2023-04-16T03:12:44.970Z,23.13
2023-04-16T03:13:44.960Z,23.10
2023-04-16T03:14:44.993Z,23.14
2023-04-16T03:15:45.026Z,23.13
2023-04-16T03:16:44.996Z,23.10
2023-04-16T03:17:44.998Z,23.13
2023-04-16T03:18:44.998Z,23.14
2023-04-16T03:19:44.987Z,23.14
2023-04-16T03:20:44.994Z,23.11
2023-04-16T03:21:44.974Z,23.14
2023-04-16T03:22:45.018Z,23.14
2023-04-16T03:23:45.016Z,23.10
2023-04-16T03:24:44.964Z,23.14
2023-04-16T03:25:44.951Z,23.14
2023-04-16T03:26:44.982Z,23.13
2023-04-16T03:27:44.962Z,23.14
2023-04-16T03:28:45.422Z,23.15
2023-04-16T03:29:44.981Z,23.13
2023-04-16T03:30:44.969Z,23.11
2023-04-16T03:31:45.003Z,23.13
2023-04-16T03:32:45.092Z,23.13
2023-04-16T03:33:45.428Z,23.13
2023-04-16T03:34:44.951Z,23.13
2023-04-16T03:35:44.959Z,23.13
2023-04-16T03:36:45.035Z,23.13
2023-04-16T03:37:44.932Z,23.11
2023-04-16T03:38:44.963Z,23.13
2023-04-16T03:39:44.929Z,23.14
2023-04-16T03:40:44.933Z,23.14
2023-04-16T03:41:44.936Z,23.11
2023-04-16T03:42:44.940Z,23.11
2023-04-16T03:43:44.937Z,23.11
2023-04-16T03:44:44.925Z,23.10
2023-04-16T03:45:44.937Z,23.08
2023-04-16T03:46:44.983Z,23.11
2023-04-16T03:47:45.033Z,23.11
2023-04-16T03:48:44.943Z,23.10
2023-04-16T03:49:44.911Z,23.08
2023-04-16T03:50:44.916Z,23.11
2023-04-16T03:51:44.909Z,23.11
2023-04-16T03:52:44.927Z,23.11
2023-04-16T03:53:44.946Z,23.11
2023-04-16T03:54:44.905Z,23.11
2023-04-16T03:55:44.922Z,23.10
2023-04-16T03:56:44.888Z,23.11
2023-04-16T03:57:44.906Z,23.08
2023-04-16T03:58:44.910Z,23.13
2023-04-16T03:59:44.893Z,23.10
2023-04-16T04:00:44.918Z,23.10
2023-04-16T04:01:44.903Z,23.11
2023-04-16T04:02:45.021Z,23.08
2023-04-16T04:03:45.085Z,23.08
2023-04-16T04:04:44.975Z,23.10
2023-04-16T04:05:44.946Z,23.10
2023-04-16T04:06:44.870Z,23.10
2023-04-16T04:07:44.910Z,23.10
2023-04-16T04:08:44.859Z,23.10
2023-04-16T04:09:44.878Z,23.11
2023-04-16T04:10:44.954Z,23.11
2023-04-16T04:11:44.886Z,23.11
2023-04-16T04:12:44.855Z,23.11
2023-04-16T04:13:44.855Z,23.08
2023-04-16T04:14:44.905Z,23.10
2023-04-16T04:15:44.898Z,23.10
2023-04-16T04:16:44.903Z,23.08
2023-04-16T04:17:44.880Z,23.07
2023-04-16T04:18:44.893Z,23.10
2023-04-16T04:19:58.104Z,23.10
2023-04-16T04:20:45.856Z,23.11
2023-04-16T04:21:44.831Z,23.10
2023-04-16T04:22:44.806Z,23.08
2023-04-16T04:23:44.834Z,23.10
2023-04-16T04:24:44.806Z,23.08
2023-04-16T04:25:44.890Z,23.07
2023-04-16T04:26:44.832Z,23.08
2023-04-16T04:27:44.799Z,23.07
2023-04-16T04:28:44.783Z,23.11
2023-04-16T04:29:44.769Z,23.08
2023-04-16T04:30:44.804Z,23.08
2023-04-16T04:31:44.821Z,23.08
2023-04-16T04:32:44.840Z,23.10
2023-04-16T04:33:44.761Z,23.11
2023-04-16T04:34:44.786Z,23.08
2023-04-16T04:35:44.744Z,23.08
2023-04-16T04:36:44.775Z,23.08
2023-04-16T04:37:44.760Z,23.08
2023-04-16T04:38:44.962Z,23.06
2023-04-16T04:39:44.717Z,23.06
2023-04-16T04:40:44.787Z,23.11
2023-04-16T04:41:44.700Z,23.10
2023-04-16T04:42:44.728Z,23.08
2023-04-16T04:43:44.693Z,23.07
2023-04-16T04:44:44.659Z,23.07
2023-04-16T04:45:44.670Z,23.07
2023-04-16T04:46:44.645Z,23.07
2023-04-16T04:47:44.777Z,23.07
2023-04-16T04:48:44.689Z,23.07
2023-04-16T04:49:44.623Z,23.07
2023-04-16T04:50:44.615Z,23.07
2023-04-16T04:51:44.633Z,23.07
2023-04-16T04:52:44.626Z,23.08
2023-04-16T04:53:44.617Z,23.07
2023-04-16T04:54:44.591Z,23.07
2023-04-16T04:55:44.598Z,23.08
2023-04-16T04:56:44.580Z,23.06
2023-04-16T04:57:44.583Z,23.08
2023-04-16T04:58:44.617Z,23.08
2023-04-16T04:59:44.591Z,23.07
2023-04-16T05:00:44.599Z,23.07
2023-04-16T05:01:44.534Z,23.07
2023-04-16T05:02:44.658Z,23.07
2023-04-16T05:03:44.662Z,23.08
2023-04-16T05:04:44.573Z,23.06
2023-04-16T05:05:44.526Z,23.06
2023-04-16T05:06:44.507Z,23.07
2023-04-16T05:07:44.505Z,23.07
2023-04-16T05:08:44.548Z,23.07
2023-04-16T05:09:44.508Z,23.08
2023-04-16T05:10:44.531Z,23.07
2023-04-16T05:11:44.484Z,23.08
2023-04-16T05:12:44.857Z,23.07
2023-04-16T05:13:44.480Z,23.07
2023-04-16T05:14:44.499Z,23.06
2023-04-16T05:15:44.479Z,23.06
2023-04-16T05:16:44.519Z,23.07
2023-04-16T05:17:44.483Z,23.08
2023-04-16T05:18:44.479Z,23.06
2023-04-16T05:19:44.491Z,23.07
2023-04-16T05:20:44.460Z,23.07
2023-04-16T05:21:44.459Z,23.06
2023-04-16T05:22:44.505Z,23.06
2023-04-16T05:23:44.452Z,23.07
2023-04-16T05:24:44.464Z,23.06
2023-04-16T05:25:44.433Z,23.07
2023-04-16T05:26:44.456Z,23.06
2023-04-16T05:27:44.426Z,23.06
2023-04-16T05:28:44.426Z,23.07
2023-04-16T05:29:44.413Z,23.07
2023-04-16T05:30:44.435Z,23.06
2023-04-16T05:31:44.442Z,23.07
2023-04-16T05:32:44.469Z,23.08
2023-04-16T05:33:44.447Z,23.06
2023-04-16T05:34:44.414Z,23.06
2023-04-16T05:35:44.435Z,23.04
2023-04-16T05:36:44.406Z,23.06
2023-04-16T05:37:44.386Z,23.08
2023-04-16T05:38:44.390Z,23.07
2023-04-16T05:39:44.403Z,23.07
2023-04-16T05:40:44.423Z,23.06
2023-04-16T05:41:44.385Z,23.04
2023-04-16T05:42:44.403Z,23.06
2023-04-16T05:43:44.413Z,23.07
2023-04-16T05:44:44.398Z,23.06
2023-04-16T05:45:44.411Z,23.04
2023-04-16T05:46:44.373Z,23.04
2023-04-16T05:47:44.417Z,23.06
2023-04-16T05:48:44.420Z,23.06
2023-04-16T05:49:44.423Z,23.07
2023-04-16T05:50:44.375Z,23.04
2023-04-16T05:51:44.418Z,23.07
2023-04-16T05:52:44.398Z,23.06
2023-04-16T05:53:44.393Z,23.07
2023-04-16T05:54:44.412Z,23.07
2023-04-16T05:55:44.392Z,23.08
2023-04-16T05:56:44.403Z,23.06
2023-04-16T05:57:44.436Z,23.06
2023-04-16T05:58:44.421Z,23.07
2023-04-16T05:59:44.411Z,23.08
2023-04-16T06:00:44.413Z,23.06
2023-04-16T06:01:44.452Z,23.10
2023-04-16T06:02:44.558Z,23.07
2023-04-16T06:03:44.565Z,23.07
2023-04-16T06:04:44.430Z,23.06
2023-04-16T06:05:44.435Z,23.03
2023-04-16T06:06:44.403Z,23.06
2023-04-16T06:07:44.398Z,23.06
2023-04-16T06:08:44.432Z,23.06
2023-04-16T06:09:44.427Z,23.06
2023-04-16T06:10:44.421Z,23.07
2023-04-16T06:11:44.397Z,23.06
2023-04-16T06:12:44.447Z,23.06
2023-04-16T06:13:44.407Z,23.07
2023-04-16T06:14:44.405Z,23.07
2023-04-16T06:15:44.463Z,23.04
2023-04-16T06:16:44.406Z,23.06
2023-04-16T06:17:44.485Z,23.08
2023-04-16T06:18:44.466Z,23.06
2023-04-16T06:19:44.430Z,23.04
2023-04-16T06:20:44.427Z,23.07
2023-04-16T06:21:44.407Z,23.06
2023-04-16T06:22:44.423Z,23.06
2023-04-16T06:23:44.421Z,23.07
2023-04-16T06:24:44.426Z,23.04
2023-04-16T06:25:44.419Z,23.06
2023-04-16T06:26:44.432Z,23.06
2023-04-16T06:27:44.455Z,23.07
2023-04-16T06:28:44.428Z,23.07
2023-04-16T06:29:44.453Z,23.04
2023-04-16T06:30:44.749Z,23.07
2023-04-16T06:31:44.537Z,23.08
2023-04-16T06:32:44.564Z,23.08
2023-04-16T06:33:44.501Z,23.07
2023-04-16T06:34:44.442Z,23.06
2023-04-16T06:35:44.422Z,23.10
2023-04-16T06:36:44.430Z,23.07
2023-04-16T06:37:44.438Z,23.10
2023-04-16T06:38:44.444Z,23.07
2023-04-16T06:39:44.445Z,23.08
2023-04-16T06:40:44.442Z,23.08
2023-04-16T06:41:44.463Z,23.08
2023-04-16T06:42:45.679Z,23.08
2023-04-16T06:43:44.449Z,23.07
2023-04-16T06:44:44.450Z,23.08
2023-04-16T06:45:44.454Z,23.07
2023-04-16T06:46:44.514Z,23.10
2023-04-16T06:47:44.517Z,23.10
2023-04-16T06:48:44.450Z,23.08
2023-04-16T06:49:44.457Z,23.08
2023-04-16T06:50:44.488Z,23.08
2023-04-16T06:51:44.425Z,23.10
2023-04-16T06:52:44.429Z,23.08
2023-04-16T06:53:44.497Z,23.08
2023-04-16T06:54:44.439Z,23.10
2023-04-16T06:55:44.462Z,23.08
2023-04-16T06:56:44.423Z,23.08
2023-04-16T06:57:44.461Z,23.07
2023-04-16T06:58:44.422Z,23.11
2023-04-16T06:59:44.434Z,23.11
2023-04-16T07:00:44.482Z,23.10
2023-04-16T07:01:44.454Z,23.08
2023-04-16T07:02:44.468Z,23.08
2023-04-16T07:03:44.508Z,23.10
2023-04-16T07:04:44.469Z,23.10
2023-04-16T07:05:44.400Z,23.11
2023-04-16T07:06:44.412Z,23.13
2023-04-16T07:07:44.415Z,23.10
2023-04-16T07:08:44.446Z,23.14
2023-04-16T07:09:44.386Z,23.11
2023-04-16T07:10:44.390Z,23.13
2023-04-16T07:11:44.408Z,23.13
2023-04-16T07:12:44.428Z,23.10
2023-04-16T07:13:44.400Z,23.13
2023-04-16T07:14:44.394Z,23.15
2023-04-16T07:15:44.404Z,23.13
2023-04-16T07:16:44.417Z,23.15
2023-04-16T07:17:44.447Z,23.14
2023-04-16T07:18:44.458Z,23.11
2023-04-16T07:19:44.381Z,23.14
2023-04-16T07:20:44.410Z,23.15
2023-04-16T07:21:44.395Z,23.17
2023-04-16T07:22:44.427Z,23.17
2023-04-16T07:23:44.440Z,23.18
2023-04-16T07:24:44.422Z,23.15
2023-04-16T07:25:44.646Z,23.15
2023-04-16T07:26:44.410Z,23.15
2023-04-16T07:27:44.381Z,23.17
2023-04-16T07:28:44.433Z,23.18
2023-04-16T07:29:44.378Z,23.15
2023-04-16T07:30:44.398Z,23.15
2023-04-16T07:31:44.419Z,23.17
2023-04-16T07:32:44.420Z,23.18
2023-04-16T07:33:44.372Z,23.17
2023-04-16T07:34:44.386Z,23.20
2023-04-16T07:35:44.402Z,23.18
2023-04-16T07:36:44.366Z,23.18
2023-04-16T07:37:44.328Z,23.18
2023-04-16T07:38:44.332Z,23.20
2023-04-16T07:39:44.330Z,23.20
2023-04-16T07:40:44.340Z,23.21
2023-04-16T07:41:44.370Z,23.20
2023-04-16T07:42:44.307Z,23.20
2023-04-16T07:43:44.340Z,23.20
2023-04-16T07:44:44.306Z,23.20
2023-04-16T07:45:44.339Z,23.20
2023-04-16T07:46:47.449Z,23.22
2023-04-16T07:47:44.402Z,23.21
2023-04-16T07:48:44.282Z,23.17
2023-04-16T07:49:44.286Z,23.22
2023-04-16T07:50:44.270Z,23.22
2023-04-16T07:51:44.267Z,23.22
2023-04-16T07:52:44.254Z,23.22
2023-04-16T07:53:44.262Z,23.21
2023-04-16T07:54:44.227Z,23.18
2023-04-16T07:55:44.271Z,23.21
2023-04-16T07:56:44.229Z,23.21
2023-04-16T07:57:44.208Z,23.21
2023-04-16T07:58:44.261Z,23.21
2023-04-16T07:59:44.209Z,23.21
2023-04-16T08:00:44.220Z,23.22
2023-04-16T08:01:44.179Z,23.22
2023-04-16T08:02:44.428Z,23.24
2023-04-16T08:03:44.397Z,23.22
2023-04-16T08:04:44.449Z,23.21
2023-04-16T08:05:44.173Z,23.22
2023-04-16T08:06:44.169Z,23.24
2023-04-16T08:07:44.159Z,23.21
2023-04-16T08:08:44.147Z,23.22
2023-04-16T08:09:44.127Z,23.24
2023-04-16T08:10:44.996Z,23.22
2023-04-16T08:11:44.127Z,23.21
2023-04-16T08:12:44.115Z,23.25
2023-04-16T08:13:44.103Z,23.22
2023-04-16T08:14:44.086Z,23.22
2023-04-16T08:15:44.118Z,23.24
2023-04-16T08:16:44.082Z,23.25
2023-04-16T08:17:44.108Z,23.21
2023-04-16T08:18:44.089Z,23.21
2023-04-16T08:19:44.079Z,23.22
2023-04-16T08:20:44.510Z,23.21
2023-04-16T08:21:44.047Z,23.24
2023-04-16T08:22:44.033Z,23.21
2023-04-16T08:23:44.040Z,23.22
2023-04-16T08:24:44.014Z,23.24
2023-04-16T08:25:44.026Z,23.22
2023-04-16T08:26:44.008Z,23.21
2023-04-16T08:27:44.000Z,23.22
2023-04-16T08:28:44.033Z,23.22
2023-04-16T08:29:43.990Z,23.22
2023-04-16T08:30:43.983Z,23.25
2023-04-16T08:31:44.029Z,23.25
2023-04-16T08:32:43.997Z,23.25
2023-04-16T08:33:43.986Z,23.22
2023-04-16T08:34:43.950Z,23.24
2023-04-16T08:35:43.954Z,23.22
2023-04-16T08:36:43.975Z,23.22
2023-04-16T08:37:43.955Z,23.24
2023-04-16T08:38:43.979Z,23.24
2023-04-16T08:39:43.953Z,23.24
2023-04-16T08:40:43.922Z,23.21
2023-04-16T08:41:43.925Z,23.22
2023-04-16T08:42:43.894Z,23.24
2023-04-16T08:43:43.923Z,23.24
2023-04-16T08:44:43.917Z,23.24
2023-04-16T08:45:43.951Z,23.22
2023-04-16T08:46:43.891Z,23.21
2023-04-16T08:47:43.911Z,23.22
2023-04-16T08:48:43.848Z,23.20
2023-04-16T08:49:43.861Z,23.22
2023-04-16T08:50:43.839Z,23.22
2023-04-16T08:51:43.849Z,23.21
2023-04-16T08:52:43.813Z,23.20
2023-04-16T08:53:43.830Z,23.25
2023-04-16T08:54:43.809Z,23.21
2023-04-16T08:55:43.815Z,23.21
2023-04-16T08:56:43.805Z,23.24
2023-04-16T08:57:43.792Z,23.24
2023-04-16T08:58:43.785Z,23.22
2023-04-16T08:59:43.788Z,23.22
2023-04-16T09:00:43.784Z,23.20
2023-04-16T09:01:43.785Z,23.20
2023-04-16T09:02:43.947Z,23.22
2023-04-16T09:03:43.843Z,23.24
2023-04-16T09:04:43.807Z,23.22
2023-04-16T09:05:43.744Z,23.24
2023-04-16T09:06:43.757Z,23.24
2023-04-16T09:07:43.728Z,23.21
2023-04-16T09:08:43.710Z,23.21
2023-04-16T09:09:43.708Z,23.21
2023-04-16T09:10:43.687Z,23.20
2023-04-16T09:11:43.703Z,23.22
2023-04-16T09:12:43.676Z,23.20
2023-04-16T09:13:43.654Z,23.21
2023-04-16T09:14:43.664Z,23.22
2023-04-16T09:15:43.657Z,23.21
2023-04-16T09:16:43.731Z,23.22
2023-04-16T09:17:43.750Z,23.21
2023-04-16T09:18:43.678Z,23.22
2023-04-16T09:19:43.689Z,23.20
2023-04-16T09:20:43.646Z,23.21
2023-04-16T09:21:43.624Z,23.24
2023-04-16T09:22:43.624Z,23.24
2023-04-16T09:23:43.615Z,23.22
2023-04-16T09:24:43.579Z,23.22
2023-04-16T09:25:43.603Z,23.21
2023-04-16T09:26:43.583Z,23.22
2023-04-16T09:27:43.587Z,23.24
2023-04-16T09:28:43.580Z,23.21
2023-04-16T09:29:43.586Z,23.22
2023-04-16T09:30:43.545Z,23.20
2023-04-16T09:31:43.548Z,23.21
2023-04-16T09:32:43.577Z,23.18
2023-04-16T09:33:43.537Z,23.18
2023-04-16T09:34:43.519Z,23.24
2023-04-16T09:35:43.510Z,23.20
2023-04-16T09:36:43.500Z,23.15
2023-04-16T09:37:43.492Z,23.20
2023-04-16T09:38:43.487Z,23.20
2023-04-16T09:39:43.509Z,23.20
2023-04-16T09:40:43.473Z,23.20
2023-04-16T09:41:43.494Z,23.18
2023-04-16T09:42:43.459Z,23.18
2023-04-16T09:43:43.546Z,23.18
2023-04-16T09:44:43.446Z,23.20
2023-04-16T09:45:43.483Z,23.21
2023-04-16T09:46:43.436Z,23.21
2023-04-16T09:47:43.533Z,23.21
2023-04-16T09:48:43.419Z,23.18
2023-04-16T09:49:43.431Z,23.22
2023-04-16T09:50:43.410Z,23.24
2023-04-16T09:51:43.419Z,23.22
2023-04-16T09:52:43.399Z,23.21
2023-04-16T09:53:43.419Z,23.21
2023-04-16T09:54:43.370Z,23.21
2023-04-16T09:55:44.354Z,23.24
2023-04-16T09:56:43.372Z,23.20
2023-04-16T09:57:43.384Z,23.24
2023-04-16T09:58:43.351Z,23.24
2023-04-16T09:59:43.343Z,23.24
2023-04-16T10:00:43.733Z,23.22
2023-04-16T10:01:43.394Z,23.24
2023-04-16T10:02:43.393Z,23.25
2023-04-16T10:03:43.496Z,23.27
2023-04-16T10:04:43.353Z,23.24
2023-04-16T10:05:43.325Z,23.24
2023-04-16T10:06:43.348Z,23.27
2023-04-16T10:07:43.356Z,23.28
2023-04-16T10:08:43.387Z,23.27
2023-04-16T10:09:43.412Z,23.27
2023-04-16T10:10:43.475Z,23.27
2023-04-16T10:11:43.495Z,23.32
2023-04-16T10:12:43.534Z,23.30
2023-04-16T10:13:43.606Z,23.30
2023-04-16T10:14:43.648Z,23.30
2023-04-16T10:15:43.705Z,23.28
2023-04-16T10:16:43.810Z,23.27
2023-04-16T10:17:43.828Z,23.27
2023-04-16T10:18:43.948Z,23.30
2023-04-16T10:19:43.909Z,23.31
2023-04-16T10:20:43.953Z,23.31
2023-04-16T10:21:44.031Z,23.30
2023-04-16T10:22:44.015Z,23.30
2023-04-16T10:23:44.127Z,23.30
2023-04-16T10:24:44.138Z,23.25
2023-04-16T10:25:44.159Z,23.31
2023-04-16T10:26:44.238Z,23.28
2023-04-16T10:27:44.305Z,23.28
2023-04-16T10:28:44.303Z,23.30
2023-04-16T10:29:44.358Z,23.30
2023-04-16T10:30:44.416Z,23.32
2023-04-16T10:31:44.443Z,23.31
2023-04-16T10:32:44.539Z,23.31
2023-04-16T10:33:44.565Z,23.32
2023-04-16T10:34:44.641Z,23.31
2023-04-16T10:35:45.683Z,23.31
2023-04-16T10:36:44.760Z,23.32
2023-04-16T10:37:44.795Z,23.28
2023-04-16T10:38:44.863Z,23.31
2023-04-16T10:39:44.862Z,23.31
2023-04-16T10:40:44.937Z,23.32
2023-04-16T10:41:44.976Z,23.31
2023-04-16T10:42:44.986Z,23.32
2023-04-16T10:43:45.012Z,23.31
2023-04-16T10:44:45.654Z,23.31
2023-04-16T10:45:45.112Z,23.30
2023-04-16T10:46:45.187Z,23.32
2023-04-16T10:47:45.214Z,23.31
2023-04-16T10:49:45.262Z,23.35
2023-04-16T10:50:45.241Z,23.32
2023-04-16T10:51:45.268Z,23.32
2023-04-16T10:52:45.251Z,23.34
2023-04-16T10:53:45.234Z,23.32
2023-04-16T10:54:45.224Z,23.35
2023-04-16T10:55:45.203Z,23.35
2023-04-16T10:56:45.197Z,23.35
2023-04-16T10:57:45.193Z,23.34
2023-04-16T10:58:45.189Z,23.32
2023-04-16T10:59:45.196Z,23.34
2023-04-16T11:00:45.165Z,23.35
2023-04-16T11:01:45.208Z,23.35
2023-04-16T11:02:45.511Z,23.34
2023-04-16T11:03:45.235Z,23.34
2023-04-16T11:04:45.438Z,23.35
2023-04-16T11:05:45.138Z,23.34
2023-04-16T11:06:45.129Z,23.37
2023-04-16T11:07:45.144Z,23.38
2023-04-16T11:08:54.048Z,23.34
2023-04-16T11:09:46.116Z,23.37
2023-04-16T11:10:45.111Z,23.32
2023-04-16T11:11:45.102Z,23.32
2023-04-16T11:12:45.114Z,23.37
2023-04-16T11:13:45.084Z,23.34
2023-04-16T11:14:45.100Z,23.32
2023-04-16T11:15:45.108Z,23.31
2023-04-16T11:16:45.065Z,23.30
2023-04-16T11:17:45.157Z,23.30
2023-04-16T11:18:51.409Z,23.32
2023-04-16T11:19:46.078Z,23.30
2023-04-16T11:20:45.030Z,23.30
2023-04-16T11:21:45.022Z,23.25
2023-04-16T11:22:45.085Z,23.27
2023-04-16T11:23:45.031Z,23.30
2023-04-16T11:24:45.013Z,23.28
2023-04-16T11:25:45.002Z,23.30
2023-04-16T11:26:45.025Z,23.27
2023-04-16T11:27:45.047Z,23.25
2023-04-16T11:28:44.976Z,23.24
2023-04-16T11:29:47.403Z,23.24
2023-04-16T11:30:45.152Z,23.25
2023-04-16T11:31:45.162Z,23.22
2023-04-16T11:32:45.207Z,23.22
2023-04-16T11:33:45.148Z,23.24
2023-04-16T11:34:45.146Z,23.24
2023-04-16T11:35:45.160Z,23.21
2023-04-16T11:36:45.127Z,23.22
2023-04-16T11:37:45.149Z,23.22
2023-04-16T11:38:45.159Z,23.24
2023-04-16T11:39:45.115Z,23.28
2023-04-16T11:40:45.123Z,23.27
2023-04-16T11:41:45.112Z,23.28
2023-04-16T11:42:45.178Z,23.28
2023-04-16T11:43:45.143Z,23.28
2023-04-16T11:44:45.117Z,23.27
2023-04-16T11:45:45.143Z,23.28
2023-04-16T11:46:45.162Z,23.30
2023-04-16T11:47:45.155Z,23.27
2023-04-16T11:48:45.130Z,23.28
2023-04-16T11:49:45.143Z,23.30
2023-04-16T11:50:45.100Z,23.27
2023-04-16T11:51:45.095Z,23.22
2023-04-16T11:52:45.144Z,23.27
2023-04-16T11:53:45.110Z,23.28
2023-04-16T11:54:45.082Z,23.25
2023-04-16T11:55:45.092Z,23.25
2023-04-16T11:56:45.136Z,23.22
2023-04-16T11:57:45.105Z,23.28
2023-04-16T11:58:45.110Z,23.25
2023-04-16T12:00:01.524Z,23.25
2023-04-16T12:00:46.069Z,23.25
2023-04-16T12:01:45.112Z,23.27
2023-04-16T12:02:45.253Z,23.27
2023-04-16T12:03:45.318Z,23.27
2023-04-16T12:04:45.148Z,23.27
2023-04-16T12:05:45.048Z,23.25
2023-04-16T12:06:45.049Z,23.25
2023-04-16T12:07:45.069Z,23.22
2023-04-16T12:08:45.042Z,23.25
2023-04-16T12:09:45.034Z,23.25
2023-04-16T12:10:45.020Z,23.24
2023-04-16T12:11:45.010Z,23.25
2023-04-16T12:12:45.010Z,23.27
2023-04-16T12:13:44.996Z,23.28
2023-04-16T12:14:44.999Z,23.27
2023-04-16T12:15:44.987Z,23.28
2023-04-16T12:16:45.026Z,23.28
2023-04-16T12:17:45.014Z,23.28
2023-04-16T12:18:44.977Z,23.28
2023-04-16T12:19:44.961Z,23.24
2023-04-16T12:20:44.952Z,23.25
2023-04-16T12:21:44.970Z,23.25
2023-04-16T12:22:44.996Z,23.24
2023-04-16T12:23:45.025Z,23.27
2023-04-16T12:24:45.032Z,23.30
2023-04-16T12:25:45.062Z,23.22
2023-04-16T12:26:45.015Z,23.22
2023-04-16T12:27:45.040Z,23.25
2023-04-16T12:28:45.061Z,23.25
2023-04-16T12:29:45.069Z,23.25
2023-04-16T12:30:45.074Z,23.27
2023-04-16T12:31:45.116Z,23.25
2023-04-16T12:32:45.175Z,23.25
2023-04-16T12:33:45.141Z,23.22
2023-04-16T12:34:49.131Z,23.25
2023-04-16T12:35:45.137Z,23.24
2023-04-16T12:36:45.121Z,23.22
2023-04-16T12:37:45.116Z,23.25
2023-04-16T12:38:45.141Z,23.21
2023-04-16T12:39:46.344Z,23.25
2023-04-16T12:40:45.113Z,23.24
2023-04-16T12:41:45.087Z,23.21
2023-04-16T12:42:45.078Z,23.22
2023-04-16T12:43:45.081Z,23.24
2023-04-16T12:44:45.072Z,23.24
2023-04-16T12:45:45.098Z,23.25
2023-04-16T12:46:45.210Z,23.21
2023-04-16T12:47:45.071Z,23.22
2023-04-16T12:48:45.062Z,23.22
2023-04-16T12:49:45.091Z,23.21
2023-04-16T12:50:45.054Z,23.21
2023-04-16T12:51:45.028Z,23.22
2023-04-16T12:52:45.027Z,23.21
2023-04-16T12:53:45.007Z,23.20